Neptus — OR6509 — position and weather

sailwx.info

Track history (hours):
 
Tides and Currents Weather Stations Pressure Air Temp Water Temp Dewpoint Dewpoint Depression Visibility Wind Speed Wind Dir Waves Ship Positions

Neptus

Last reported at 2017-Nov-04 05:43 UTC. Time now 2017-Nov-20 13:46 UTC.
Position N 36°01' E 014°34'.
Warning: this ship's position is 16 days out of date.

Length 20 m.

Type: Sailing vessel. MMSI: 205650910.

Date/timePositionNaut miles runAvg speedWind from/ knotsBaromVisibWave heightAir tempDewpointWater temp
2017-Nov-04 05:43N 36°01' E 014°34'2 7.7
2017-Nov-04 05:29N 35°59' E 014°33'4 6.9
2017-Nov-04 04:58N 35°56' E 014°31'2 0.1
2017-Nov-03 15:37N 35°56' E 014°29'1 6.8
2017-Nov-03 15:30N 35°57' E 014°29'3 6.8
2017-Nov-03 15:00N 35°59' E 014°25'4 7.0
2017-Nov-03 14:29N 36°01' E 014°21'2 3.3
2017-Nov-03 13:58N 36°01' E 014°19'0 0.0
2017-Nov-03 13:28N 36°01' E 014°19'0 0.0
2017-Nov-03 12:58N 36°01' E 014°19'0 0.0
2017-Nov-03 12:28N 36°01' E 014°19'0 0.0
2017-Nov-03 11:58N 36°01' E 014°19'0 0.0
2017-Nov-03 11:28N 36°01' E 014°19'0 0.0
2017-Nov-03 10:58N 36°01' E 014°19'0 0.0
2017-Nov-03 10:28N 36°01' E 014°19'0 0.0
2017-Nov-03 09:58N 36°01' E 014°19'0 0.0
2017-Nov-03 09:28N 36°01' E 014°19'0 0.0
2017-Nov-03 08:58N 36°01' E 014°19'0 0.0
2017-Nov-03 08:28N 36°01' E 014°19'0 0.0
2017-Nov-03 07:58N 36°01' E 014°19'1 1.5
2017-Nov-03 07:30N 36°00' E 014°19'2 4.6
2017-Nov-03 07:00N 36°00' E 014°22'3 5.3
2017-Nov-03 06:30N 35°58' E 014°25'1 2.0
2017-Nov-03 06:00N 35°57' E 014°25'0 0.0
2017-Nov-03 05:30N 35°57' E 014°25'0 0.0
2017-Nov-03 05:00N 35°57' E 014°25'0 0.0
2017-Nov-03 04:30N 35°57' E 014°25'0 0.0
2017-Nov-03 03:57N 35°57' E 014°25'0 0.0
2017-Nov-03 03:30N 35°57' E 014°25'0 0.0
2017-Nov-03 03:00N 35°57' E 014°25'0 0.0
2017-Nov-03 02:30N 35°57' E 014°25'0 0.0
2017-Nov-03 02:00N 35°57' E 014°25'0 0.0
2017-Nov-03 01:27N 35°57' E 014°25'0 0.0
2017-Nov-03 01:00N 35°57' E 014°25'0 0.0
2017-Nov-03 00:30N 35°57' E 014°25'0 0.0
2017-Nov-02 23:57N 35°57' E 014°25'0 0.0
2017-Nov-02 23:30N 35°57' E 014°25'0 0.0
2017-Nov-02 22:57N 35°57' E 014°25'0 0.0
2017-Nov-02 22:30N 35°57' E 014°25'0 0.0
2017-Nov-02 21:54N 35°57' E 014°25'0 0.0
2017-Nov-02 21:30N 35°57' E 014°25'0 0.0
2017-Nov-02 21:00N 35°57' E 014°25'0 0.0
2017-Nov-02 20:30N 35°57' E 014°25'0 0.0
2017-Nov-02 19:57N 35°57' E 014°25'0 0.0
2017-Nov-02 19:30N 35°57' E 014°25'0 0.0
2017-Nov-02 19:00N 35°57' E 014°25'0 0.0
2017-Nov-02 18:30N 35°57' E 014°25'0 0.0
2017-Nov-02 18:00N 35°57' E 014°25'0 0.0
2017-Nov-02 17:30N 35°57' E 014°25'0 0.0
2017-Nov-02 17:00N 35°57' E 014°25'0 0.0
2017-Nov-02 06:43N 35°57' E 014°24'1 6.2
2017-Nov-02 06:30N 35°58' E 014°26'3 6.2
2017-Nov-02 05:59N 35°56' E 014°29'  
Track history (hours):
 
Tides and Currents Weather Stations Pressure Air Temp Water Temp Dewpoint Dewpoint Depression Visibility Wind Speed Wind Dir Waves Ship Positions

Neptus

Last reported at 2017-Nov-04 05:43 UTC. Time now 2017-Nov-20 13:46 UTC.
Position N 36°01' E 014°34'.
Warning: this ship's position is 16 days out of date.

Length 20 m.

Type: Sailing vessel. MMSI: 205650910.

Date/timePositionNaut miles runAvg speedWind from/ knotsBaromVisibWave heightAir tempDewpointWater temp
2017-Nov-04 05:43N 36°01' E 014°34'2 7.7
2017-Nov-04 05:29N 35°59' E 014°33'4 6.9
2017-Nov-04 04:58N 35°56' E 014°31'2 0.1
2017-Nov-03 15:37N 35°56' E 014°29'1 6.8
2017-Nov-03 15:30N 35°57' E 014°29'3 6.8
2017-Nov-03 15:00N 35°59' E 014°25'4 7.0
2017-Nov-03 14:29N 36°01' E 014°21'2 3.3
2017-Nov-03 13:58N 36°01' E 014°19'0 0.0
2017-Nov-03 13:28N 36°01' E 014°19'0 0.0
2017-Nov-03 12:58N 36°01' E 014°19'0 0.0
2017-Nov-03 12:28N 36°01' E 014°19'0 0.0
2017-Nov-03 11:58N 36°01' E 014°19'0 0.0
2017-Nov-03 11:28N 36°01' E 014°19'0 0.0
2017-Nov-03 10:58N 36°01' E 014°19'0 0.0
2017-Nov-03 10:28N 36°01' E 014°19'0 0.0
2017-Nov-03 09:58N 36°01' E 014°19'0 0.0
2017-Nov-03 09:28N 36°01' E 014°19'0 0.0
2017-Nov-03 08:58N 36°01' E 014°19'0 0.0
2017-Nov-03 08:28N 36°01' E 014°19'0 0.0
2017-Nov-03 07:58N 36°01' E 014°19'1 1.5
2017-Nov-03 07:30N 36°00' E 014°19'2 4.6
2017-Nov-03 07:00N 36°00' E 014°22'3 5.3
2017-Nov-03 06:30N 35°58' E 014°25'1 2.0
2017-Nov-03 06:00N 35°57' E 014°25'0 0.0
2017-Nov-03 05:30N 35°57' E 014°25'0 0.0
2017-Nov-03 05:00N 35°57' E 014°25'0 0.0
2017-Nov-03 04:30N 35°57' E 014°25'0 0.0
2017-Nov-03 03:57N 35°57' E 014°25'0 0.0
2017-Nov-03 03:30N 35°57' E 014°25'0 0.0
2017-Nov-03 03:00N 35°57' E 014°25'0 0.0
2017-Nov-03 02:30N 35°57' E 014°25'0 0.0
2017-Nov-03 02:00N 35°57' E 014°25'0 0.0
2017-Nov-03 01:27N 35°57' E 014°25'0 0.0
2017-Nov-03 01:00N 35°57' E 014°25'0 0.0
2017-Nov-03 00:30N 35°57' E 014°25'0 0.0
2017-Nov-02 23:57N 35°57' E 014°25'0 0.0
2017-Nov-02 23:30N 35°57' E 014°25'0 0.0
2017-Nov-02 22:57N 35°57' E 014°25'0 0.0
2017-Nov-02 22:30N 35°57' E 014°25'0 0.0
2017-Nov-02 21:54N 35°57' E 014°25'0 0.0
2017-Nov-02 21:30N 35°57' E 014°25'0 0.0
2017-Nov-02 21:00N 35°57' E 014°25'0 0.0
2017-Nov-02 20:30N 35°57' E 014°25'0 0.0
2017-Nov-02 19:57N 35°57' E 014°25'0 0.0
2017-Nov-02 19:30N 35°57' E 014°25'0 0.0
2017-Nov-02 19:00N 35°57' E 014°25'0 0.0
2017-Nov-02 18:30N 35°57' E 014°25'0 0.0
2017-Nov-02 18:00N 35°57' E 014°25'0 0.0
2017-Nov-02 17:30N 35°57' E 014°25'0 0.0
2017-Nov-02 17:00N 35°57' E 014°25'0 0.0
2017-Nov-02 06:43N 35°57' E 014°24'1 6.2
2017-Nov-02 06:30N 35°58' E 014°26'3 6.2
2017-Nov-02 05:59N 35°56' E 014°29'  

Dump ship's entire track history